Time;durP1;ratioP1;P1;durP2;ratioP2;P2;SDS_P1;SDS_P2;PMS_P1;PMS_P2;Temp;Humidity;BMP_temperature;BMP_pressure;BME280_temperature;BME280_humidity;BME280_pressure;Samples;Min_cycle;Max_cycle;Signal;HPM_P1;HPM_P2
2021/01/01 00:01:00;;;;;;;13.60;12.05;;;;;;;12.68;58.75;99012.83;1802755;79;21141;-64
2021/01/01 00:03:27;;;;;;;12.82;11.50;;;;;;;12.68;58.72;99014.16;1812024;79;21192;-66
2021/01/01 00:05:54;;;;;;;13.48;12.07;;;;;;;12.68;58.75;99016.83;1800521;79;21023;-67
2021/01/01 00:08:22;;;;;;;14.23;12.13;;;;;;;12.67;58.77;99011.17;1811432;79;21127;-66
2021/01/01 00:10:50;;;;;;;14.07;12.55;;;;;;;12.66;58.78;99014.36;1811877;79;21153;-66
2021/01/01 00:13:18;;;;;;;14.75;12.15;;;;;;;12.65;58.79;99006.06;1810326;79;22087;-65
2021/01/01 00:15:45;;;;;;;13.25;11.88;;;;;;;12.64;58.82;99003.08;1783538;79;21380;-65
2021/01/01 00:18:12;;;;;;;15.78;12.40;;;;;;;12.64;58.83;98996.42;1772286;79;21042;-65
2021/01/01 00:20:42;;;;;;;13.20;11.80;;;;;;;12.64;58.84;98998.27;1811954;79;21145;-65
2021/01/01 00:23:10;;;;;;;14.80;11.83;;;;;;;12.63;58.87;98998.75;1811884;79;21160;-66
2021/01/01 00:25:37;;;;;;;13.62;12.23;;;;;;;12.61;58.88;98990.66;1811764;79;21131;-66
2021/01/01 00:28:05;;;;;;;14.40;12.88;;;;;;;12.61;58.89;98994.14;1811892;79;21395;-65
2021/01/01 00:30:32;;;;;;;14.58;12.68;;;;;;;12.61;58.91;98993.33;1810619;79;21118;-65
2021/01/01 00:32:59;;;;;;;13.93;12.28;;;;;;;12.60;58.94;98993.84;1778995;79;21571;-66
2021/01/01 00:35:26;;;;;;;13.20;11.30;;;;;;;12.59;58.94;98993.52;1811234;79;21180;-65
2021/01/01 00:37:53;;;;;;;12.75;10.75;;;;;;;12.58;58.97;98990.04;1811931;79;21117;-68
2021/01/01 00:40:21;;;;;;;14.53;11.25;;;;;;;12.58;58.98;98979.91;1812006;79;21188;-66
2021/01/01 00:42:48;;;;;;;14.05;12.23;;;;;;;12.57;58.99;98976.42;1786942;79;21202;-66
2021/01/01 00:45:15;;;;;;;13.38;11.93;;;;;;;12.57;59.01;98971.58;1803427;79;21137;-65
2021/01/01 00:47:47;;;;;;;11.93;10.63;;;;;;;12.57;59.00;98974.25;1810316;79;21110;-65
2021/01/01 00:50:15;;;;;;;13.43;11.65;;;;;;;12.63;58.98;98977.44;1808307;79;21522;-64
2021/01/01 00:52:42;;;;;;;12.65;11.12;;;;;;;12.73;58.75;98968.58;1782016;79;22188;-66
2021/01/01 00:55:10;;;;;;;11.55;10.35;;;;;;;12.73;58.73;98966.43;1811990;79;21177;-66
2021/01/01 00:57:37;;;;;;;12.85;11.40;;;;;;;12.70;58.73;98968.96;1758784;79;21163;-66
2021/01/01 01:00:07;;;;;;;12.53;11.25;;;;;;;12.71;58.73;98967.95;1795877;79;21587;-65
2021/01/01 01:02:35;;;;;;;14.33;12.55;;;;;;;12.71;58.72;98965.78;1779481;80;21548;-64
2021/01/01 01:05:12;;;;;;;12.82;10.90;;;;;;;12.70;58.72;98965.48;1762270;79;24240;-65
2021/01/01 01:07:39;;;;;;;12.80;11.48;;;;;;;12.69;58.73;98967.83;1788051;77;21125;-65
2021/01/01 01:10:12;;;;;;;12.45;11.03;;;;;;;12.68;58.73;98968.86;1778842;80;21179;-66
2021/01/01 01:12:37;;;;;;;13.10;11.22;;;;;;;12.67;58.76;98958.72;1795232;79;21106;-64
2021/01/01 01:15:07;;;;;;;12.18;10.65;;;;;;;12.66;58.77;98965.06;1757256;80;21559;-66
2021/01/01 01:17:35;;;;;;;13.95;11.38;;;;;;;12.64;58.79;98955.11;1795145;79;21231;-66
2021/01/01 01:20:03;;;;;;;12.60;11.30;;;;;;;12.63;58.80;98942.80;1778737;80;21155;-65
2021/01/01 01:22:30;;;;;;;11.75;10.32;;;;;;;12.63;58.83;98950.80;1794070;77;21585;-65
2021/01/01 01:24:57;;;;;;;14.10;11.53;;;;;;;12.62;58.85;98939.84;1778925;80;21143;-66
2021/01/01 01:27:24;;;;;;;12.90;11.08;;;;;;;12.61;58.87;98940.84;1795284;79;21118;-65
2021/01/01 01:29:52;;;;;;;11.75;10.05;;;;;;;12.61;58.88;98933.37;1778840;80;21182;-67
2021/01/01 01:32:19;;;;;;;12.90;11.50;;;;;;;12.59;58.89;98929.58;1795223;79;21126;-65
2021/01/01 01:34:47;;;;;;;11.57;10.38;;;;;;;12.59;58.90;98927.75;1778802;80;21166;-64
2021/01/01 01:37:14;;;;;;;12.43;11.12;;;;;;;12.58;58.91;98919.44;1795190;79;21170;-65
2021/01/01 01:39:41;;;;;;;11.90;10.65;;;;;;;12.58;58.92;98922.09;1777743;80;21093;-66
2021/01/01 01:42:08;;;;;;;12.95;11.40;;;;;;;12.58;58.95;98919.95;1795182;79;21438;-66
2021/01/01 01:44:37;;;;;;;12.23;10.05;;;;;;;12.57;58.96;98916.97;1778769;80;21373;-65
2021/01/01 01:47:05;;;;;;;13.70;10.70;;;;;;;12.56;59.01;98919.34;1795299;78;21122;-65
2021/01/01 01:49:33;;;;;;;12.88;10.98;;;;;;;12.56;59.00;98918.00;1778795;80;21115;-65
2021/01/01 01:52:01;;;;;;;11.63;9.90;;;;;;;12.55;59.02;98922.48;1795272;79;21130;-65
2021/01/01 01:54:28;;;;;;;10.65;9.28;;;;;;;12.62;58.96;98927.03;1795223;79;21191;-65
2021/01/01 01:56:55;;;;;;;11.88;9.38;;;;;;;12.71;58.74;98918.66;1776601;80;21218;-66
2021/01/01 01:59:23;;;;;;;10.82;9.15;;;;;;;12.72;58.71;98920.28;1772783;80;21594;-65
2021/01/01 02:01:50;;;;;;;11.90;10.48;;;;;;;12.71;58.71;98907.16;1793713;78;21835;-66
2021/01/01 02:04:17;;;;;;;11.12;9.90;;;;;;;12.70;58.71;98914.33;1809237;77;21109;-66
2021/01/01 02:06:45;;;;;;;11.60;9.48;;;;;;;12.70;58.71;98902.34;1790332;78;21352;-65
2021/01/01 02:09:12;;;;;;;12.00;10.30;;;;;;;12.69;58.71;98904.72;1812759;78;21177;-65
2021/01/01 02:11:41;;;;;;;11.48;9.88;;;;;;;12.69;58.72;98903.37;1822990;77;21140;-66
2021/01/01 02:14:09;;;;;;;11.75;10.28;;;;;;;12.68;58.70;98895.58;1814951;78;21169;-64
2021/01/01 02:16:37;;;;;;;12.03;10.15;;;;;;;12.67;58.72;98893.92;1799931;78;21158;-65
2021/01/01 02:19:04;;;;;;;10.82;9.60;;;;;;;12.66;58.74;98891.78;1823117;78;21197;-64
2021/01/01 02:21:32;;;;;;;10.58;9.35;;;;;;;12.65;58.75;98894.16;1822774;78;21621;-67
2021/01/01 02:23:59;;;;;;;10.70;9.45;;;;;;;12.64;58.77;98889.83;1808271;78;21138;-64
2021/01/01 02:26:26;;;;;;;11.30;10.20;;;;;;;12.63;58.80;98890.84;1815295;77;21145;-65
2021/01/01 02:28:55;;;;;;;11.80;9.70;;;;;;;12.62;58.81;98895.87;1822934;77;21105;-65
2021/01/01 02:31:23;;;;;;;10.82;9.58;;;;;;;12.61;58.85;98887.56;1814375;77;21183;-64
2021/01/01 02:33:50;;;;;;;11.15;9.73;;;;;;;12.61;58.87;98889.41;1790576;78;21166;-65
2021/01/01 02:36:17;;;;;;;11.83;10.32;;;;;;;12.60;58.88;98885.94;1790397;78;21606;-65
2021/01/01 02:38:46;;;;;;;12.45;10.65;;;;;;;12.59;58.90;98870.95;1813081;77;21623;-65
2021/01/01 02:41:13;;;;;;;11.85;10.32;;;;;;;12.58;58.93;98880.80;1807507;78;21092;-65
2021/01/01 02:43:41;;;;;;;11.12;9.83;;;;;;;12.58;58.95;98877.33;1823064;77;21169;-65
2021/01/01 02:46:08;;;;;;;12.28;10.75;;;;;;;12.57;58.95;98874.34;1822072;78;21200;-65
2021/01/01 02:48:35;;;;;;;10.35;9.33;;;;;;;12.57;58.97;98871.67;1815047;77;21114;-65
2021/01/01 02:51:03;;;;;;;11.60;10.40;;;;;;;12.56;58.99;98864.72;1813885;77;21113;-64
2021/01/01 02:53:30;;;;;;;11.48;10.25;;;;;;;12.56;58.99;98870.05;1791636;77;21138;-64
2021/01/01 02:55:58;;;;;;;12.58;10.65;;;;;;;12.55;59.00;98862.55;1790418;78;22122;-65
2021/01/01 02:58:27;;;;;;;11.12;9.15;;;;;;;12.55;59.01;98857.73;1812005;78;21560;-66
2021/01/01 03:00:54;;;;;;;11.40;9.83;;;;;;;12.56;59.03;98852.21;1815235;77;21143;-65
2021/01/01 03:03:22;;;;;;;11.53;9.90;;;;;;;12.66;58.85;98847.00;1803012;78;21166;-67
2021/01/01 03:05:49;;;;;;;10.08;8.90;;;;;;;12.70;58.75;98845.56;1794590;77;21570;-65
2021/01/01 03:08:17;;;;;;;10.55;9.45;;;;;;;12.68;58.75;98836.44;1803526;78;21361;-66
2021/01/01 03:10:44;;;;;;;10.70;9.15;;;;;;;12.69;58.75;98841.25;1822356;77;21109;-66
2021/01/01 03:13:11;;;;;;;10.08;8.88;;;;;;;12.68;58.75;98838.29;1823568;77;21617;-65
2021/01/01 03:15:39;;;;;;;10.58;9.35;;;;;;;12.67;58.75;98829.48;1802526;78;21143;-64
2021/01/01 03:18:06;;;;;;;11.38;10.10;;;;;;;12.68;58.74;98824.97;1812927;77;21130;-67
2021/01/01 03:20:33;;;;;;;11.63;10.38;;;;;;;12.68;58.74;98823.64;1802990;78;21621;-65
2021/01/01 03:23:01;;;;;;;11.85;10.38;;;;;;;12.66;58.77;98823.02;1795867;77;21192;-66
2021/01/01 03:25:28;;;;;;;12.07;10.32;;;;;;;12.65;58.76;98818.70;1806484;77;21143;-64
2021/01/01 03:27:55;;;;;;;12.00;10.20;;;;;;;12.65;58.77;98822.20;1815086;77;21617;-66
2021/01/01 03:30:23;;;;;;;12.47;10.65;;;;;;;12.64;58.78;98810.41;1803499;78;21094;-65
2021/01/01 03:32:50;;;;;;;11.20;9.68;;;;;;;12.63;58.81;98814.91;1799599;78;21420;-65
2021/01/01 03:35:17;;;;;;;11.80;10.48;;;;;;;12.62;58.83;98812.47;1811647;77;21107;-65
2021/01/01 03:37:45;;;;;;;11.65;10.13;;;;;;;12.62;58.85;98813.80;1801621;78;21114;-65
2021/01/01 03:40:12;;;;;;;12.65;11.00;;;;;;;12.61;58.85;98811.63;1821150;78;21130;-65
2021/01/01 03:42:40;;;;;;;11.95;10.68;;;;;;;12.60;58.87;98796.67;1822441;77;21582;-66
2021/01/01 03:45:11;;;;;;;13.80;10.58;;;;;;;12.60;58.89;98791.35;1799632;78;21184;-65
2021/01/01 03:47:38;;;;;;;12.65;10.58;;;;;;;12.59;58.89;98793.20;1824018;77;21180;-65
2021/01/01 03:50:08;;;;;;;14.07;11.48;;;;;;;12.58;58.91;98791.55;1823007;77;21614;-65
2021/01/01 03:52:35;;;;;;;11.40;10.23;;;;;;;12.58;58.91;98795.55;1823905;77;21117;-65
2021/01/01 03:55:04;;;;;;;12.55;10.60;;;;;;;12.57;58.92;98789.92;1811740;77;21153;-66
2021/01/01 03:57:31;;;;;;;12.28;10.32;;;;;;;12.57;58.97;98794.41;1824268;78;21177;-65
2021/01/01 03:59:59;;;;;;;11.63;10.40;;;;;;;12.56;58.99;98799.45;1820227;78;21141;-65
2021/01/01 04:02:26;;;;;;;12.30;10.65;;;;;;;12.55;58.99;98791.13;1787865;78;21182;-65
2021/01/01 04:04:53;;;;;;;13.40;10.93;;;;;;;12.55;59.01;98789.28;1807802;78;21137;-65
2021/01/01 04:07:21;;;;;;;11.15;9.73;;;;;;;12.55;59.01;98797.27;1797493;78;21135;-65
2021/01/01 04:09:48;;;;;;;12.35;10.00;;;;;;;12.55;59.04;98795.94;1820217;78;21189;-65
2021/01/01 04:12:16;;;;;;;12.00;10.40;;;;;;;12.56;59.04;98790.94;1771801;80;21151;-65
2021/01/01 04:14:43;;;;;;;11.65;10.15;;;;;;;12.67;58.87;98784.19;1819589;78;21596;-65
2021/01/01 04:17:11;;;;;;;12.35;10.45;;;;;;;12.70;58.76;98768.29;1768470;80;21140;-64
2021/01/01 04:19:38;;;;;;;12.25;9.93;;;;;;;12.69;58.76;98762.15;1810598;78;21622;-64
2021/01/01 04:22:06;;;;;;;11.75;10.03;;;;;;;12.68;58.74;98756.50;1787890;78;21316;-65
2021/01/01 04:24:33;;;;;;;12.25;10.85;;;;;;;12.70;58.74;98758.97;1814057;78;21585;-65
2021/01/01 04:27:00;;;;;;;12.03;10.30;;;;;;;12.69;58.73;98758.64;1784535;80;21133;-65
2021/01/01 04:29:27;;;;;;;11.78;9.43;;;;;;;12.68;58.73;98756.50;1814904;78;21110;-65
2021/01/01 04:31:55;;;;;;;11.55;10.18;;;;;;;12.68;58.74;98759.16;1779057;80;21089;-65
2021/01/01 04:34:22;;;;;;;11.20;9.45;;;;;;;12.68;58.75;98763.68;1787559;80;21180;-65
2021/01/01 04:36:49;;;;;;;11.60;9.58;;;;;;;12.67;58.72;98760.70;1797371;78;21960;-65
2021/01/01 04:39:17;;;;;;;11.88;9.93;;;;;;;12.67;58.75;98752.70;1820092;78;21178;-65
2021/01/01 04:41:44;;;;;;;11.88;9.68;;;;;;;12.66;58.76;98759.07;1820119;78;21157;-64
2021/01/01 04:44:11;;;;;;;11.75;10.18;;;;;;;12.64;58.78;98745.95;1820413;78;21121;-66
2021/01/01 04:46:38;;;;;;;11.28;9.93;;;;;;;12.64;58.77;98757.13;1769233;80;21245;-65
2021/01/01 04:49:07;;;;;;;11.10;9.88;;;;;;;12.63;58.81;98764.80;1779084;80;21146;-65
2021/01/01 04:51:35;;;;;;;11.28;9.60;;;;;;;12.64;58.81;98766.45;1766659;80;21135;-65
2021/01/01 04:54:03;;;;;;;11.50;10.30;;;;;;;12.62;58.84;98755.99;1820418;78;21602;-65
2021/01/01 04:56:31;;;;;;;11.00;9.70;;;;;;;12.61;58.85;98726.36;1798486;78;21146;-65
2021/01/01 04:58:59;;;;;;;11.53;10.38;;;;;;;12.61;58.85;98739.69;1800782;78;21238;-64
2021/01/01 05:01:28;;;;;;;10.30;9.08;;;;;;;12.61;58.86;98739.69;1828437;77;21120;-64
2021/01/01 05:03:56;;;;;;;12.68;10.82;;;;;;;12.61;58.88;98726.88;1810576;77;21147;-64
2021/01/01 05:06:29;;;;;;;11.43;10.20;;;;;;;12.60;58.88;98718.08;1817842;78;21099;-64
2021/01/01 05:09:00;;;;;;;11.25;10.05;;;;;;;12.59;58.90;98712.43;1795878;78;21117;-66
2021/01/01 05:11:27;;;;;;;10.82;9.48;;;;;;;12.58;58.90;98719.61;1817798;78;21254;-64
2021/01/01 05:14:02;;;;;;;9.95;8.90;;;;;;;12.58;58.92;98749.44;1828549;78;21162;-66
2021/01/01 05:16:32;;;;;;;11.85;9.90;;;;;;;12.56;58.94;98725.66;1828206;78;22103;-64
2021/01/01 05:18:59;;;;;;;9.30;8.25;;;;;;;12.57;58.93;98754.45;1828021;78;21150;-65
2021/01/01 05:21:28;;;;;;;11.80;9.40;;;;;;;12.56;58.97;98742.98;1793359;78;21162;-65
2021/01/01 05:23:56;;;;;;;10.60;8.65;;;;;;;12.56;58.99;98726.18;1776290;79;21389;-65
2021/01/01 05:26:27;;;;;;;10.18;9.18;;;;;;;12.56;59.01;98727.52;1799712;79;21130;-64
2021/01/01 05:29:07;;;;;;;9.63;8.65;;;;;;;12.66;58.85;98730.58;1803442;79;21149;-66
2021/01/01 05:31:39;;;;;;;9.50;8.58;;;;;;;12.69;58.73;98728.84;1804219;79;21164;-65
2021/01/01 05:34:11;;;;;;;9.35;8.45;;;;;;;12.69;58.73;98725.33;1804745;79;21618;-65
2021/01/01 05:36:43;;;;;;;9.55;8.15;;;;;;;12.67;58.72;98730.05;1784355;78;21196;-65
2021/01/01 05:39:21;;;;;;;10.32;9.33;;;;;;;12.67;58.73;98725.56;1803419;79;21181;-66
2021/01/01 05:41:53;;;;;;;9.93;8.40;;;;;;;12.66;58.74;98729.76;1803419;79;21153;-66
2021/01/01 05:44:31;;;;;;;9.35;8.13;;;;;;;12.66;58.74;98751.08;1803506;79;21656;-66
2021/01/01 05:47:07;;;;;;;8.68;7.87;;;;;;;12.65;58.76;98727.62;1804005;79;21142;-64
2021/01/01 05:49:40;;;;;;;9.88;8.83;;;;;;;12.63;58.77;98729.64;1803990;79;22189;-64
2021/01/01 05:52:25;;;;;;;9.93;8.93;;;;;;;12.62;58.79;98728.02;1755502;81;21164;-65
2021/01/01 05:55:00;;;;;;;10.90;8.73;;;;;;;12.61;58.78;98719.70;1797722;78;21123;-65
2021/01/01 05:57:38;;;;;;;10.18;8.50;;;;;;;12.60;58.80;98722.08;1758099;81;21116;-64
2021/01/01 06:00:14;;;;;;;9.45;8.10;;;;;;;12.62;58.85;98721.36;1817461;79;28756;-64
2021/01/01 06:02:42;;;;;;;9.58;8.05;;;;;;;12.58;58.85;98708.95;1808402;78;21530;-65
2021/01/01 06:05:13;;;;;;;9.80;8.45;;;;;;;12.57;58.86;98725.14;1813462;78;21190;-65
2021/01/01 06:07:41;;;;;;;9.40;7.92;;;;;;;12.55;58.88;98712.02;1822213;78;21138;-65
2021/01/01 06:10:10;;;;;;;10.13;9.00;;;;;;;12.55;58.88;98724.01;1820899;77;21026;-65
2021/01/01 06:12:38;;;;;;;10.03;8.83;;;;;;;12.53;58.90;98714.59;1815774;77;21114;-65
2021/01/01 06:15:08;;;;;;;8.90;8.00;;;;;;;12.55;58.92;98719.20;1822456;78;21100;-66
2021/01/01 06:17:49;;;;;;;10.00;8.50;;;;;;;12.53;58.92;98702.60;1822301;78;22259;-65
2021/01/01 06:20:22;;;;;;;8.38;7.53;;;;;;;12.53;58.94;98707.41;1818055;78;21181;-64
2021/01/01 06:23:00;;;;;;;10.03;8.65;;;;;;;12.52;58.95;98711.64;1820695;77;21078;-64
2021/01/01 06:25:28;;;;;;;8.90;8.00;;;;;;;12.51;58.96;98705.47;1795547;78;21159;-66
2021/01/01 06:27:56;;;;;;;8.38;7.20;;;;;;;12.50;58.99;98701.70;1764518;80;21167;-64
2021/01/01 06:30:24;;;;;;;8.40;7.50;;;;;;;12.50;59.00;98709.70;1782134;78;21398;-64
2021/01/01 06:32:52;;;;;;;9.88;8.08;;;;;;;12.57;58.95;98705.16;1802137;78;21148;-64
2021/01/01 06:35:23;;;;;;;8.58;7.70;;;;;;;12.67;58.71;98695.41;1800321;78;21144;-64
2021/01/01 06:37:55;;;;;;;8.60;7.70;;;;;;;12.66;58.69;98699.93;1778332;78;21166;-65
2021/01/01 06:40:35;;;;;;;8.68;7.83;;;;;;;12.65;58.69;98698.31;1777966;78;21170;-65
2021/01/01 06:43:09;;;;;;;9.48;7.90;;;;;;;12.65;58.70;98699.64;1801478;78;21379;-65
2021/01/01 06:45:46;;;;;;;9.33;8.00;;;;;;;12.64;58.71;98701.17;1791888;79;21140;-65
2021/01/01 06:48:20;;;;;;;8.88;7.97;;;;;;;12.62;58.72;98706.70;1798347;78;21160;-66
2021/01/01 06:50:52;;;;;;;9.15;8.20;;;;;;;12.62;58.72;98710.70;1767491;78;21189;-65
2021/01/01 06:53:30;;;;;;;9.15;7.95;;;;;;;12.61;58.73;98695.72;1771067;78;21143;-65
2021/01/01 06:56:08;;;;;;;9.53;7.90;;;;;;;12.60;58.75;98695.44;1793592;78;21269;-66
2021/01/01 06:58:36;;;;;;;8.68;7.62;;;;;;;12.60;58.76;98711.42;1809998;78;21189;-65
2021/01/01 07:01:16;;;;;;;8.38;7.55;;;;;;;12.58;58.77;98701.48;1778316;80;21138;-65
2021/01/01 07:03:44;;;;;;;8.25;7.45;;;;;;;12.57;58.79;98717.15;1786835;78;21099;-65
2021/01/01 07:06:19;;;;;;;10.30;8.73;;;;;;;12.56;58.83;98715.00;1782962;80;21591;-65
2021/01/01 07:08:47;;;;;;;8.33;7.53;;;;;;;12.55;58.82;98706.69;1746791;81;21265;-66
2021/01/01 07:11:27;;;;;;;8.78;7.47;;;;;;;12.54;58.84;98708.25;1735293;80;21171;-66
2021/01/01 07:13:56;;;;;;;8.40;7.50;;;;;;;12.54;58.86;98724.23;1760645;80;21174;-65
2021/01/01 07:16:26;;;;;;;8.55;7.75;;;;;;;12.53;58.87;98711.92;1789060;80;21235;-66
2021/01/01 07:18:53;;;;;;;9.20;7.70;;;;;;;12.52;58.88;98712.97;1790828;80;21140;-66
2021/01/01 07:21:21;;;;;;;9.05;8.10;;;;;;;12.52;58.90;98716.97;1763535;80;21397;-66
2021/01/01 07:23:48;;;;;;;8.93;7.30;;;;;;;12.52;58.90;98719.63;1742970;81;21200;-65
2021/01/01 07:26:16;;;;;;;9.18;8.18;;;;;;;12.51;58.93;98717.45;1786211;80;21148;-66
2021/01/01 07:28:48;;;;;;;9.63;8.13;;;;;;;12.51;58.94;98712.65;1773072;80;21191;-65
2021/01/01 07:31:18;;;;;;;8.50;7.65;;;;;;;12.52;58.93;98722.30;1769292;80;21158;-64
2021/01/01 07:33:46;;;;;;;9.58;8.58;;;;;;;12.51;58.94;98725.97;1790986;79;21356;-65
2021/01/01 07:36:13;;;;;;;9.30;8.25;;;;;;;12.51;58.94;98725.97;1789392;80;21568;-65
2021/01/01 07:38:43;;;;;;;7.75;6.95;;;;;;;12.51;58.96;98725.97;1791899;80;21126;-65
2021/01/01 07:41:10;;;;;;;7.97;6.87;;;;;;;12.58;58.88;98730.79;1791916;80;21557;-65
2021/01/01 07:43:40;;;;;;;7.15;6.45;;;;;;;12.70;58.63;98727.80;1789610;80;21165;-65
2021/01/01 07:46:10;;;;;;;7.62;6.87;;;;;;;12.71;58.59;98737.94;1790954;80;21261;-64
2021/01/01 07:48:37;;;;;;;10.43;7.10;;;;;;;12.69;58.60;98731.50;1789718;79;21151;-65
2021/01/01 07:51:08;;;;;;;7.72;6.95;;;;;;;12.68;58.60;98741.84;1789584;80;21164;-65
2021/01/01 07:53:37;;;;;;;8.75;7.33;;;;;;;12.67;58.58;98737.55;1789434;80;21168;-64
2021/01/01 07:56:09;;;;;;;7.83;7.03;;;;;;;12.68;58.59;98737.03;1790810;80;21165;-65
2021/01/01 07:58:37;;;;;;;7.75;6.95;;;;;;;12.67;58.61;98748.70;1788912;78;21356;-65
2021/01/01 08:01:09;;;;;;;8.43;7.03;;;;;;;12.65;58.60;98736.95;1762292;81;21464;-64
2021/01/01 08:03:39;;;;;;;7.85;6.92;;;;;;;12.64;58.62;98740.62;1741606;81;21180;-65
2021/01/01 08:06:06;;;;;;;9.33;7.33;;;;;;;12.63;58.64;98753.62;1763143;81;21195;-65
2021/01/01 08:08:34;;;;;;;9.23;7.78;;;;;;;12.63;58.64;98750.95;1763240;81;21160;-66
2021/01/01 08:11:01;;;;;;;8.58;7.10;;;;;;;12.62;58.66;98749.85;1760686;81;21574;-64
2021/01/01 08:13:31;;;;;;;9.05;7.70;;;;;;;12.61;58.66;98750.34;1763145;81;21144;-66
2021/01/01 08:16:10;;;;;;;7.30;6.53;;;;;;;12.61;58.71;98757.52;1763256;80;21171;-65
2021/01/01 08:18:38;;;;;;;7.83;6.87;;;;;;;12.59;58.72;98747.06;1763201;81;21451;-65
2021/01/01 08:21:05;;;;;;;8.63;7.53;;;;;;;12.59;58.73;98752.39;1763160;81;21410;-65
2021/01/01 08:23:43;;;;;;;8.08;6.90;;;;;;;12.58;58.76;98756.91;1763158;81;21682;-65
2021/01/01 08:26:10;;;;;;;9.45;7.55;;;;;;;12.58;58.77;98754.77;1739864;80;21170;-65
2021/01/01 08:28:38;;;;;;;7.95;7.10;;;;;;;12.56;58.83;98756.30;1732055;82;21207;-66
2021/01/01 08:31:08;;;;;;;8.23;7.15;;;;;;;12.55;58.84;98759.97;1723466;81;21150;-66
2021/01/01 08:33:46;;;;;;;8.58;7.28;;;;;;;12.56;58.85;98765.63;1763320;81;21171;-66
2021/01/01 08:36:14;;;;;;;8.10;7.30;;;;;;;12.56;58.85;98764.81;1763199;81;21410;-64
2021/01/01 08:38:47;;;;;;;7.92;6.62;;;;;;;12.55;58.90;98763.97;1763066;80;21170;-65
2021/01/01 08:41:16;;;;;;;8.08;6.92;;;;;;;12.54;58.89;98768.19;1763230;81;21176;-65
2021/01/01 08:43:43;;;;;;;8.48;7.22;;;;;;;12.53;58.93;98774.02;1761565;81;21142;-64
2021/01/01 08:46:15;;;;;;;8.45;7.37;;;;;;;12.54;58.94;98784.17;1726418;82;21593;-64
2021/01/01 08:48:42;;;;;;;7.50;6.67;;;;;;;12.55;58.95;98781.81;1732575;81;21268;-64
2021/01/01 08:51:09;;;;;;;8.45;7.22;;;;;;;12.55;58.99;98787.13;1733997;82;21146;-64
2021/01/01 08:53:40;;;;;;;6.60;5.90;;;;;;;12.55;58.96;98785.80;1741004;82;21182;-64
2021/01/01 08:56:08;;;;;;;10.00;6.72;;;;;;;12.56;58.99;98796.78;1729035;82;21165;-65
2021/01/01 08:58:36;;;;;;;7.15;6.45;;;;;;;12.57;59.00;98787.75;1752323;80;21424;-65
2021/01/01 09:01:15;;;;;;;7.65;6.30;;;;;;;12.51;59.02;98786.72;1742685;80;23814;-64
2021/01/01 09:03:43;;;;;;;7.75;6.10;;;;;;;12.62;59.01;98788.48;1749468;81;21588;-64
2021/01/01 09:06:18;;;;;;;7.50;6.17;;;;;;;12.73;58.80;98795.88;1756286;79;21146;-64
2021/01/01 09:08:45;;;;;;;7.10;5.95;;;;;;;12.76;58.70;98796.26;1768828;80;21651;-64
2021/01/01 09:11:22;;;;;;;6.72;5.62;;;;;;;12.77;58.71;98808.57;1756275;80;21147;-64
2021/01/01 09:14:01;;;;;;;8.38;6.55;;;;;;;12.79;58.67;98802.52;1789038;80;21562;-64
2021/01/01 09:16:30;;;;;;;6.55;5.85;;;;;;;12.81;58.63;98801.51;1785432;80;21603;-63
2021/01/01 09:19:11;;;;;;;7.53;6.30;;;;;;;12.83;58.61;98812.27;1788953;79;21180;-65
2021/01/01 09:21:39;;;;;;;6.05;5.33;;;;;;;12.84;58.59;98815.74;1751691;80;21134;-65
2021/01/01 09:24:07;;;;;;;8.33;6.10;;;;;;;12.86;58.57;98817.16;1770112;79;21643;-65
2021/01/01 09:26:35;;;;;;;6.78;6.17;;;;;;;12.87;58.56;98819.34;1732284;80;21269;-65
2021/01/01 09:29:08;;;;;;;6.92;5.78;;;;;;;12.89;58.54;98826.62;1766039;80;21185;-65
2021/01/01 09:31:36;;;;;;;6.25;5.62;;;;;;;12.90;58.54;98836.23;1761689;80;25634;-65
2021/01/01 09:34:06;;;;;;;7.97;6.10;;;;;;;12.90;58.51;98822.42;1761265;80;21113;-65
2021/01/01 09:36:38;;;;;;;6.55;5.53;;;;;;;12.90;58.51;98830.91;1729934;80;21146;-65
2021/01/01 09:39:08;;;;;;;6.33;5.72;;;;;;;12.90;58.54;98821.09;1763100;80;21200;-65
2021/01/01 09:41:36;;;;;;;7.15;5.78;;;;;;;12.90;58.54;98826.91;1761333;80;21167;-65
2021/01/01 09:44:03;;;;;;;7.08;5.60;;;;;;;12.91;58.55;98831.23;1789031;80;21148;-66
2021/01/01 09:46:31;;;;;;;6.15;5.55;;;;;;;12.91;58.55;98824.56;1786384;80;21152;-65
2021/01/01 09:48:58;;;;;;;6.80;5.50;;;;;;;12.92;58.56;98826.19;1748683;79;21184;-65
2021/01/01 09:51:26;;;;;;;5.83;5.22;;;;;;;12.92;58.55;98829.70;1769541;79;21377;-65
2021/01/01 09:53:53;;;;;;;7.25;5.20;;;;;;;12.93;58.54;98821.18;1746290;79;21132;-65
2021/01/01 09:56:20;;;;;;;5.62;5.12;;;;;;;12.94;58.56;98825.47;1749991;79;21203;-65
2021/01/01 09:58:47;;;;;;;6.47;5.12;;;;;;;12.95;58.55;98823.12;1784125;78;21386;-64
2021/01/01 10:01:17;;;;;;;5.92;4.60;;;;;;;12.97;58.55;98823.73;1777494;78;21294;-64
2021/01/01 10:03:44;;;;;;;5.67;5.17;;;;;;;12.97;58.55;98824.55;1761068;80;21771;-64
2021/01/01 10:06:13;;;;;;;5.33;4.83;;;;;;;12.98;58.55;98824.87;1749247;80;21145;-65
2021/01/01 10:08:40;;;;;;;4.78;4.28;;;;;;;12.99;58.56;98826.49;1727413;83;21196;-65
2021/01/01 10:11:13;;;;;;;5.62;5.08;;;;;;;13.02;58.51;98833.28;1759468;80;22032;-65
2021/01/01 10:13:41;;;;;;;5.42;4.92;;;;;;;13.01;58.53;98836.95;1745440;80;21175;-64
2021/01/01 10:16:09;;;;;;;5.12;4.62;;;;;;;13.03;58.52;98831.42;1767100;80;21423;-65
2021/01/01 10:18:38;;;;;;;5.10;4.50;;;;;;;13.03;58.51;98842.91;1745404;80;21180;-66
2021/01/01 10:21:07;;;;;;;6.40;5.37;;;;;;;13.04;58.51;98839.23;1745466;80;21194;-65
2021/01/01 10:23:35;;;;;;;6.47;5.60;;;;;;;13.04;58.49;98833.89;1745407;80;21162;-65
2021/01/01 10:26:03;;;;;;;5.47;4.97;;;;;;;13.05;58.50;98847.52;1758284;80;21135;-64
2021/01/01 10:28:30;;;;;;;4.78;4.15;;;;;;;13.05;58.50;98839.52;1727206;83;21391;-64
2021/01/01 10:30:59;;;;;;;5.30;4.70;;;;;;;13.07;58.50;98841.98;1756152;80;21131;-64
2021/01/01 10:33:26;;;;;;;5.65;5.08;;;;;;;13.07;58.48;98836.13;1749557;80;21193;-65
2021/01/01 10:35:54;;;;;;;5.20;4.40;;;;;;;13.08;58.48;98846.30;1727767;83;21392;-64
2021/01/01 10:38:21;;;;;;;4.90;4.08;;;;;;;13.08;58.48;98847.11;1751610;80;21132;-65
2021/01/01 10:40:48;;;;;;;5.20;4.20;;;;;;;13.09;58.47;98849.26;1727503;83;21218;-65
2021/01/01 10:43:15;;;;;;;5.12;4.40;;;;;;;13.09;58.46;98853.26;1762127;80;21625;-65
2021/01/01 10:45:43;;;;;;;5.47;4.50;;;;;;;13.10;58.46;98858.91;1751891;80;21137;-65
2021/01/01 10:48:10;;;;;;;5.75;4.80;;;;;;;13.09;58.48;98855.41;1728204;83;21172;-64
2021/01/01 10:50:37;;;;;;;4.55;4.10;;;;;;;13.11;58.46;98863.20;1771026;80;21145;-64
2021/01/01 10:53:04;;;;;;;4.55;4.03;;;;;;;13.12;58.44;98864.86;1728051;83;21194;-65
2021/01/01 10:55:34;;;;;;;5.12;4.20;;;;;;;13.12;58.44;98867.00;1746056;80;21568;-64
2021/01/01 10:58:01;;;;;;;5.25;4.20;;;;;;;13.12;58.45;98865.67;1745471;80;21136;-64
2021/01/01 11:00:29;;;;;;;4.42;4.03;;;;;;;13.12;58.43;98861.67;1768516;80;21169;-66
2021/01/01 11:02:56;;;;;;;3.60;3.30;;;;;;;13.13;58.44;98867.81;1790730;80;21219;-66
2021/01/01 11:05:24;;;;;;;3.87;3.50;;;;;;;13.13;58.45;98872.66;1759917;80;21364;-67
2021/01/01 11:07:51;;;;;;;4.10;3.70;;;;;;;13.13;58.44;98875.33;1768030;79;21093;-65
2021/01/01 11:10:18;;;;;;;5.22;4.28;;;;;;;13.13;58.45;98877.15;1790689;79;21121;-69
2021/01/01 11:12:48;;;;;;;4.00;3.60;;;;;;;13.13;58.49;98873.99;1758668;80;21181;-69
2021/01/01 12:19:26;;;;;;;3.95;3.55;;;;;;;13.13;58.43;98881.99;1775848;80;21367;-69
2021/01/01 12:20:09;;;;;;;4.80;3.70;;;;;;;13.17;58.76;98923.71;1804868;79;21142;-69
2021/01/01 12:22:17;;;;;;;4.28;3.87;;;;;;;13.28;58.49;98918.29;1807317;79;23730;-68
2021/01/01 12:24:48;;;;;;;4.83;3.62;;;;;;;13.29;58.46;98922.58;1754583;77;21613;-69
2021/01/01 12:27:19;;;;;;;3.47;3.17;;;;;;;13.30;58.42;98935.75;1812266;79;21161;-68
2021/01/01 12:29:47;;;;;;;3.62;3.12;;;;;;;13.31;58.39;98932.59;1812021;79;21113;-69
2021/01/01 12:32:15;;;;;;;3.30;3.00;;;;;;;13.31;58.36;98941.41;1788790;77;21165;-69
2021/01/01 12:34:42;;;;;;;3.90;3.47;;;;;;;13.33;58.33;98945.20;1767602;79;21345;-69
2021/01/01 12:37:10;;;;;;;4.17;3.50;;;;;;;13.35;58.31;98945.82;1811807;79;21089;-70